sensor_id;sensor_type;location;lat;lon;timestamp;temperature;humidity
38020;DHT22;23829;51.350;17.286;2022-12-29T00:01:57;22.20;34.40
38020;DHT22;23829;51.350;17.286;2022-12-29T00:04:24;22.30;34.30
38020;DHT22;23829;51.350;17.286;2022-12-29T00:06:52;22.10;34.30
38020;DHT22;23829;51.350;17.286;2022-12-29T00:09:18;22.00;34.60
38020;DHT22;23829;51.350;17.286;2022-12-29T00:11:45;22.00;34.70
38020;DHT22;23829;51.350;17.286;2022-12-29T00:14:12;22.10;34.60
38020;DHT22;23829;51.350;17.286;2022-12-29T00:16:58;22.00;34.70
38020;DHT22;23829;51.350;17.286;2022-12-29T00:19:24;21.90;34.80
38020;DHT22;23829;51.350;17.286;2022-12-29T00:22:10;22.00;34.70
38020;DHT22;23829;51.350;17.286;2022-12-29T00:24:56;21.90;34.90
38020;DHT22;23829;51.350;17.286;2022-12-29T00:27:41;22.00;34.70
38020;DHT22;23829;51.350;17.286;2022-12-29T00:30:26;21.90;34.80
38020;DHT22;23829;51.350;17.286;2022-12-29T00:33:16;21.90;34.80
38020;DHT22;23829;51.350;17.286;2022-12-29T00:36:08;22.00;34.70
38020;DHT22;23829;51.350;17.286;2022-12-29T00:38:38;21.90;34.60
38020;DHT22;23829;51.350;17.286;2022-12-29T00:41:25;21.90;34.60
38020;DHT22;23829;51.350;17.286;2022-12-29T00:44:12;21.70;34.90
38020;DHT22;23829;51.350;17.286;2022-12-29T00:46:42;21.60;35.30
38020;DHT22;23829;51.350;17.286;2022-12-29T00:49:12;21.60;35.20
38020;DHT22;23829;51.350;17.286;2022-12-29T00:52:08;21.50;35.30
38020;DHT22;23829;51.350;17.286;2022-12-29T00:54:37;21.50;35.30
38020;DHT22;23829;51.350;17.286;2022-12-29T00:57:05;21.40;35.40
38020;DHT22;23829;51.350;17.286;2022-12-29T00:59:35;21.40;35.30
38020;DHT22;23829;51.350;17.286;2022-12-29T01:02:01;21.40;35.30
38020;DHT22;23829;51.350;17.286;2022-12-29T01:04:29;21.40;35.40
38020;DHT22;23829;51.350;17.286;2022-12-29T01:06:55;21.50;35.20
38020;DHT22;23829;51.350;17.286;2022-12-29T01:09:22;21.60;34.90
38020;DHT22;23829;51.350;17.286;2022-12-29T01:12:09;21.50;35.20
38020;DHT22;23829;51.350;17.286;2022-12-29T01:14:38;21.40;35.30
38020;DHT22;23829;51.350;17.286;2022-12-29T01:17:05;21.60;35.00
38020;DHT22;23829;51.350;17.286;2022-12-29T01:19:32;21.50;34.90
38020;DHT22;23829;51.350;17.286;2022-12-29T01:22:00;21.50;34.90
38020;DHT22;23829;51.350;17.286;2022-12-29T01:24:28;21.30;35.20
38020;DHT22;23829;51.350;17.286;2022-12-29T01:26:54;21.20;35.40
38020;DHT22;23829;51.350;17.286;2022-12-29T01:29:20;21.20;35.40
38020;DHT22;23829;51.350;17.286;2022-12-29T01:31:47;21.20;35.40
38020;DHT22;23829;51.350;17.286;2022-12-29T01:34:15;21.20;35.50
38020;DHT22;23829;51.350;17.286;2022-12-29T01:36:42;21.20;35.40
38020;DHT22;23829;51.350;17.286;2022-12-29T01:39:08;21.00;35.90
38020;DHT22;23829;51.350;17.286;2022-12-29T01:41:35;21.00;35.90
38020;DHT22;23829;51.350;17.286;2022-12-29T01:44:02;21.00;35.90
38020;DHT22;23829;51.350;17.286;2022-12-29T01:46:41;21.10;35.70
38020;DHT22;23829;51.350;17.286;2022-12-29T01:49:24;21.00;35.70
38020;DHT22;23829;51.350;17.286;2022-12-29T01:52:05;21.10;35.70
38020;DHT22;23829;51.350;17.286;2022-12-29T01:54:43;21.20;35.60
38020;DHT22;23829;51.350;17.286;2022-12-29T01:57:16;21.30;35.50
38020;DHT22;23829;51.350;17.286;2022-12-29T01:59:51;21.40;35.30
38020;DHT22;23829;51.350;17.286;2022-12-29T02:02:19;21.10;35.70
38020;DHT22;23829;51.350;17.286;2022-12-29T02:04:46;21.00;35.90
38020;DHT22;23829;51.350;17.286;2022-12-29T02:07:19;21.00;35.90
38020;DHT22;23829;51.350;17.286;2022-12-29T02:09:50;20.90;36.10
38020;DHT22;23829;51.350;17.286;2022-12-29T02:12:20;20.90;36.20
38020;DHT22;23829;51.350;17.286;2022-12-29T02:14:49;20.90;36.20
38020;DHT22;23829;51.350;17.286;2022-12-29T02:20:06;21.00;36.20
38020;DHT22;23829;51.350;17.286;2022-12-29T02:31:15;21.00;36.00
38020;DHT22;23829;51.350;17.286;2022-12-29T02:34:06;21.00;36.00
38020;DHT22;23829;51.350;17.286;2022-12-29T02:45:47;21.00;35.90
38020;DHT22;23829;51.350;17.286;2022-12-29T02:48:38;20.80;36.10
38020;DHT22;23829;51.350;17.286;2022-12-29T02:53:36;20.70;36.50
38020;DHT22;23829;51.350;17.286;2022-12-29T02:56:22;20.70;36.50
38020;DHT22;23829;51.350;17.286;2022-12-29T02:58:49;20.80;36.30
38020;DHT22;23829;51.350;17.286;2022-12-29T03:06:31;20.70;36.40
38020;DHT22;23829;51.350;17.286;2022-12-29T03:12:13;20.60;36.50
38020;DHT22;23829;51.350;17.286;2022-12-29T03:15:02;20.80;36.40
38020;DHT22;23829;51.350;17.286;2022-12-29T03:17:57;20.80;36.40
38020;DHT22;23829;51.350;17.286;2022-12-29T03:20:32;20.70;36.30
38020;DHT22;23829;51.350;17.286;2022-12-29T03:23:03;21.00;36.00
38020;DHT22;23829;51.350;17.286;2022-12-29T03:25:42;20.80;35.90
38020;DHT22;23829;51.350;17.286;2022-12-29T03:28:16;20.50;36.60
38020;DHT22;23829;51.350;17.286;2022-12-29T03:30:47;20.60;36.50
38020;DHT22;23829;51.350;17.286;2022-12-29T03:33:18;20.50;36.60
38020;DHT22;23829;51.350;17.286;2022-12-29T03:35:50;20.60;36.50
38020;DHT22;23829;51.350;17.286;2022-12-29T03:40:56;21.10;35.70
38020;DHT22;23829;51.350;17.286;2022-12-29T03:43:27;21.00;35.60
38020;DHT22;23829;51.350;17.286;2022-12-29T03:45:55;21.20;35.40
38020;DHT22;23829;51.350;17.286;2022-12-29T03:48:22;21.10;35.60
38020;DHT22;23829;51.350;17.286;2022-12-29T03:50:50;21.20;35.50
38020;DHT22;23829;51.350;17.286;2022-12-29T03:53:17;21.10;35.60
38020;DHT22;23829;51.350;17.286;2022-12-29T03:55:44;21.00;35.80
38020;DHT22;23829;51.350;17.286;2022-12-29T03:58:11;21.20;35.70
38020;DHT22;23829;51.350;17.286;2022-12-29T04:00:56;21.50;35.10
38020;DHT22;23829;51.350;17.286;2022-12-29T04:03:23;21.40;35.30
38020;DHT22;23829;51.350;17.286;2022-12-29T04:05:50;21.20;35.90
38020;DHT22;23829;51.350;17.286;2022-12-29T04:08:17;21.10;36.40
38020;DHT22;23829;51.350;17.286;2022-12-29T04:10:44;21.10;36.60
38020;DHT22;23829;51.350;17.286;2022-12-29T04:13:10;21.20;36.40
38020;DHT22;23829;51.350;17.286;2022-12-29T04:15:37;21.00;36.90
38020;DHT22;23829;51.350;17.286;2022-12-29T04:18:03;21.00;36.80
38020;DHT22;23829;51.350;17.286;2022-12-29T04:20:29;21.00;36.90
38020;DHT22;23829;51.350;17.286;2022-12-29T04:23:16;21.20;36.40
38020;DHT22;23829;51.350;17.286;2022-12-29T04:25:45;21.40;36.20
38020;DHT22;23829;51.350;17.286;2022-12-29T04:28:14;21.40;35.70
38020;DHT22;23829;51.350;17.286;2022-12-29T04:31:02;21.50;35.50
38020;DHT22;23829;51.350;17.286;2022-12-29T04:33:34;21.60;35.40
38020;DHT22;23829;51.350;17.286;2022-12-29T04:36:01;21.60;35.20
38020;DHT22;23829;51.350;17.286;2022-12-29T04:38:28;21.70;34.90
38020;DHT22;23829;51.350;17.286;2022-12-29T04:40:55;21.50;35.20
38020;DHT22;23829;51.350;17.286;2022-12-29T04:43:23;21.30;35.40
38020;DHT22;23829;51.350;17.286;2022-12-29T04:46:08;21.40;35.40
38020;DHT22;23829;51.350;17.286;2022-12-29T04:48:43;21.40;35.30
38020;DHT22;23829;51.350;17.286;2022-12-29T04:51:29;21.40;35.10
38020;DHT22;23829;51.350;17.286;2022-12-29T04:53:56;21.30;35.40
38020;DHT22;23829;51.350;17.286;2022-12-29T04:56:24;21.40;35.30
38020;DHT22;23829;51.350;17.286;2022-12-29T04:58:50;21.30;35.30
38020;DHT22;23829;51.350;17.286;2022-12-29T05:01:17;21.40;35.30
38020;DHT22;23829;51.350;17.286;2022-12-29T05:03:43;21.30;35.40
38020;DHT22;23829;51.350;17.286;2022-12-29T05:06:10;21.20;35.70
38020;DHT22;23829;51.350;17.286;2022-12-29T05:08:37;21.30;35.40
38020;DHT22;23829;51.350;17.286;2022-12-29T05:11:04;21.40;35.20
38020;DHT22;23829;51.350;17.286;2022-12-29T05:13:31;21.40;35.00
38020;DHT22;23829;51.350;17.286;2022-12-29T05:15:57;21.40;35.10
38020;DHT22;23829;51.350;17.286;2022-12-29T05:18:24;21.40;35.10
38020;DHT22;23829;51.350;17.286;2022-12-29T05:20:51;21.40;34.90
38020;DHT22;23829;51.350;17.286;2022-12-29T05:23:19;21.30;34.70
38020;DHT22;23829;51.350;17.286;2022-12-29T05:25:52;21.30;34.90
38020;DHT22;23829;51.350;17.286;2022-12-29T05:28:41;21.10;35.10
38020;DHT22;23829;51.350;17.286;2022-12-29T05:31:12;21.10;35.20
38020;DHT22;23829;51.350;17.286;2022-12-29T05:33:38;21.10;35.10
38020;DHT22;23829;51.350;17.286;2022-12-29T05:36:07;21.00;35.00
38020;DHT22;23829;51.350;17.286;2022-12-29T05:38:36;21.10;35.00
38020;DHT22;23829;51.350;17.286;2022-12-29T05:41:03;21.20;34.80
38020;DHT22;23829;51.350;17.286;2022-12-29T05:43:50;21.40;34.50
38020;DHT22;23829;51.350;17.286;2022-12-29T05:46:40;21.50;34.30
38020;DHT22;23829;51.350;17.286;2022-12-29T05:49:19;21.50;34.00
38020;DHT22;23829;51.350;17.286;2022-12-29T05:52:15;21.40;34.10
38020;DHT22;23829;51.350;17.286;2022-12-29T05:54:41;21.60;33.80
38020;DHT22;23829;51.350;17.286;2022-12-29T05:57:12;21.60;33.70
38020;DHT22;23829;51.350;17.286;2022-12-29T05:59:39;21.30;34.10
38020;DHT22;23829;51.350;17.286;2022-12-29T06:02:06;21.30;34.10
38020;DHT22;23829;51.350;17.286;2022-12-29T06:04:33;21.40;33.90
38020;DHT22;23829;51.350;17.286;2022-12-29T06:06:59;21.40;34.10
38020;DHT22;23829;51.350;17.286;2022-12-29T06:09:35;21.50;33.80
38020;DHT22;23829;51.350;17.286;2022-12-29T06:12:04;21.60;33.60
38020;DHT22;23829;51.350;17.286;2022-12-29T06:14:30;21.60;33.40
38020;DHT22;23829;51.350;17.286;2022-12-29T06:16:58;21.80;33.30
38020;DHT22;23829;51.350;17.286;2022-12-29T06:19:26;21.90;33.10
38020;DHT22;23829;51.350;17.286;2022-12-29T06:21:52;21.80;33.20
38020;DHT22;23829;51.350;17.286;2022-12-29T06:24:20;21.80;33.20
38020;DHT22;23829;51.350;17.286;2022-12-29T06:26:48;21.90;33.00
38020;DHT22;23829;51.350;17.286;2022-12-29T06:29:14;21.80;33.10
38020;DHT22;23829;51.350;17.286;2022-12-29T06:31:44;21.70;33.30
38020;DHT22;23829;51.350;17.286;2022-12-29T06:34:15;21.70;33.50
38020;DHT22;23829;51.350;17.286;2022-12-29T06:36:41;21.70;33.40
38020;DHT22;23829;51.350;17.286;2022-12-29T06:39:08;21.80;33.30
38020;DHT22;23829;51.350;17.286;2022-12-29T06:41:35;21.90;33.10
38020;DHT22;23829;51.350;17.286;2022-12-29T06:44:21;21.70;33.20
38020;DHT22;23829;51.350;17.286;2022-12-29T06:46:56;21.70;33.20
38020;DHT22;23829;51.350;17.286;2022-12-29T06:49:23;21.70;33.40
38020;DHT22;23829;51.350;17.286;2022-12-29T06:51:50;21.60;33.60
38020;DHT22;23829;51.350;17.286;2022-12-29T06:54:16;21.60;33.50
38020;DHT22;23829;51.350;17.286;2022-12-29T06:56:43;21.70;33.20
38020;DHT22;23829;51.350;17.286;2022-12-29T06:59:09;21.60;33.40
38020;DHT22;23829;51.350;17.286;2022-12-29T07:01:36;21.60;33.60
38020;DHT22;23829;51.350;17.286;2022-12-29T07:04:03;21.50;33.60
38020;DHT22;23829;51.350;17.286;2022-12-29T07:06:30;21.50;33.70
38020;DHT22;23829;51.350;17.286;2022-12-29T07:08:56;21.60;33.40
38020;DHT22;23829;51.350;17.286;2022-12-29T07:11:24;21.60;33.40
38020;DHT22;23829;51.350;17.286;2022-12-29T07:13:50;21.60;33.30
38020;DHT22;23829;51.350;17.286;2022-12-29T07:16:17;21.80;33.20
38020;DHT22;23829;51.350;17.286;2022-12-29T07:18:44;21.70;33.30
38020;DHT22;23829;51.350;17.286;2022-12-29T07:21:10;21.70;33.40
38020;DHT22;23829;51.350;17.286;2022-12-29T07:23:37;21.70;33.30
38020;DHT22;23829;51.350;17.286;2022-12-29T07:26:06;21.60;33.30
38020;DHT22;23829;51.350;17.286;2022-12-29T07:28:34;21.60;33.40
38020;DHT22;23829;51.350;17.286;2022-12-29T07:31:01;21.50;33.40
38020;DHT22;23829;51.350;17.286;2022-12-29T07:33:28;21.50;33.50
38020;DHT22;23829;51.350;17.286;2022-12-29T07:35:55;21.70;33.30
38020;DHT22;23829;51.350;17.286;2022-12-29T07:38:21;21.80;33.30
38020;DHT22;23829;51.350;17.286;2022-12-29T07:40:48;21.70;33.40
38020;DHT22;23829;51.350;17.286;2022-12-29T07:43:14;21.70;33.30
38020;DHT22;23829;51.350;17.286;2022-12-29T07:45:50;21.80;33.10
38020;DHT22;23829;51.350;17.286;2022-12-29T07:48:17;21.90;33.10
38020;DHT22;23829;51.350;17.286;2022-12-29T07:50:44;21.90;33.20
38020;DHT22;23829;51.350;17.286;2022-12-29T07:53:10;22.20;32.90
38020;DHT22;23829;51.350;17.286;2022-12-29T07:55:37;22.20;32.80
38020;DHT22;23829;51.350;17.286;2022-12-29T07:58:03;22.10;32.80
38020;DHT22;23829;51.350;17.286;2022-12-29T08:00:29;22.10;32.90
38020;DHT22;23829;51.350;17.286;2022-12-29T08:02:58;22.20;32.70
38020;DHT22;23829;51.350;17.286;2022-12-29T08:05:25;22.30;32.40
38020;DHT22;23829;51.350;17.286;2022-12-29T08:07:51;22.20;32.60
38020;DHT22;23829;51.350;17.286;2022-12-29T08:10:18;22.10;32.90
38020;DHT22;23829;51.350;17.286;2022-12-29T08:12:44;22.10;32.80
38020;DHT22;23829;51.350;17.286;2022-12-29T08:15:11;22.00;33.10
38020;DHT22;23829;51.350;17.286;2022-12-29T08:17:38;22.10;33.00
38020;DHT22;23829;51.350;17.286;2022-12-29T08:20:05;22.10;33.00
38020;DHT22;23829;51.350;17.286;2022-12-29T08:22:31;22.30;32.70
38020;DHT22;23829;51.350;17.286;2022-12-29T08:25:02;22.20;33.00
38020;DHT22;23829;51.350;17.286;2022-12-29T08:27:28;22.30;32.70
38020;DHT22;23829;51.350;17.286;2022-12-29T08:29:55;22.20;32.80
38020;DHT22;23829;51.350;17.286;2022-12-29T08:32:21;22.10;33.10
38020;DHT22;23829;51.350;17.286;2022-12-29T08:34:48;22.30;33.10
38020;DHT22;23829;51.350;17.286;2022-12-29T08:37:14;22.40;32.60
38020;DHT22;23829;51.350;17.286;2022-12-29T08:39:41;22.40;32.70
38020;DHT22;23829;51.350;17.286;2022-12-29T08:42:07;22.50;32.80
38020;DHT22;23829;51.350;17.286;2022-12-29T08:44:33;22.50;32.60
38020;DHT22;23829;51.350;17.286;2022-12-29T08:47:00;22.50;32.80
38020;DHT22;23829;51.350;17.286;2022-12-29T08:49:26;22.80;32.50
38020;DHT22;23829;51.350;17.286;2022-12-29T08:51:52;22.80;32.30
38020;DHT22;23829;51.350;17.286;2022-12-29T08:54:19;22.70;32.40
38020;DHT22;23829;51.350;17.286;2022-12-29T08:56:45;22.70;32.50
38020;DHT22;23829;51.350;17.286;2022-12-29T08:59:13;22.50;32.70
38020;DHT22;23829;51.350;17.286;2022-12-29T09:01:41;22.50;32.90
38020;DHT22;23829;51.350;17.286;2022-12-29T09:04:08;22.70;32.60
38020;DHT22;23829;51.350;17.286;2022-12-29T09:06:34;22.80;32.50
38020;DHT22;23829;51.350;17.286;2022-12-29T09:09:01;22.90;32.40
38020;DHT22;23829;51.350;17.286;2022-12-29T09:11:27;22.90;32.30
38020;DHT22;23829;51.350;17.286;2022-12-29T09:13:55;22.70;32.60
38020;DHT22;23829;51.350;17.286;2022-12-29T09:16:22;22.70;32.70
38020;DHT22;23829;51.350;17.286;2022-12-29T09:18:49;22.80;32.70
38020;DHT22;23829;51.350;17.286;2022-12-29T09:21:16;23.00;32.40
38020;DHT22;23829;51.350;17.286;2022-12-29T09:23:43;23.10;32.10
38020;DHT22;23829;51.350;17.286;2022-12-29T09:26:09;23.10;32.20
38020;DHT22;23829;51.350;17.286;2022-12-29T09:28:36;23.10;32.10
38020;DHT22;23829;51.350;17.286;2022-12-29T09:31:02;23.00;32.20
38020;DHT22;23829;51.350;17.286;2022-12-29T09:33:29;23.00;32.30
38020;DHT22;23829;51.350;17.286;2022-12-29T09:35:57;23.20;31.90
38020;DHT22;23829;51.350;17.286;2022-12-29T09:38:25;23.20;32.00
38020;DHT22;23829;51.350;17.286;2022-12-29T09:40:55;23.10;32.20
38020;DHT22;23829;51.350;17.286;2022-12-29T09:48:30;23.00;32.30
38020;DHT22;23829;51.350;17.286;2022-12-29T09:51:05;22.90;32.60
38020;DHT22;23829;51.350;17.286;2022-12-29T09:53:41;23.10;32.30
38020;DHT22;23829;51.350;17.286;2022-12-29T09:56:19;23.10;32.60
38020;DHT22;23829;51.350;17.286;2022-12-29T09:59:19;23.20;32.40
38020;DHT22;23829;51.350;17.286;2022-12-29T10:01:59;23.30;32.50
38020;DHT22;23829;51.350;17.286;2022-12-29T10:04:31;23.50;32.30
38020;DHT22;23829;51.350;17.286;2022-12-29T10:07:25;23.60;32.20
38020;DHT22;23829;51.350;17.286;2022-12-29T10:10:20;23.30;32.60
38020;DHT22;23829;51.350;17.286;2022-12-29T10:18:42;23.60;32.30
38020;DHT22;23829;51.350;17.286;2022-12-29T10:21:38;23.70;32.10
38020;DHT22;23829;51.350;17.286;2022-12-29T10:24:12;24.00;31.80
38020;DHT22;23829;51.350;17.286;2022-12-29T10:26:43;23.90;31.80
38020;DHT22;23829;51.350;17.286;2022-12-29T10:29:22;23.90;31.80
38020;DHT22;23829;51.350;17.286;2022-12-29T10:32:01;23.90;31.90
38020;DHT22;23829;51.350;17.286;2022-12-29T10:34:37;24.00;31.80
38020;DHT22;23829;51.350;17.286;2022-12-29T10:39:53;23.90;32.10
38020;DHT22;23829;51.350;17.286;2022-12-29T10:42:33;23.90;32.30
38020;DHT22;23829;51.350;17.286;2022-12-29T10:45:04;23.90;32.30
38020;DHT22;23829;51.350;17.286;2022-12-29T10:47:35;23.90;32.20
38020;DHT22;23829;51.350;17.286;2022-12-29T10:50:05;24.00;31.90
38020;DHT22;23829;51.350;17.286;2022-12-29T10:52:33;23.80;32.10
38020;DHT22;23829;51.350;17.286;2022-12-29T10:55:11;23.70;32.50
38020;DHT22;23829;51.350;17.286;2022-12-29T10:57:44;23.60;32.70
38020;DHT22;23829;51.350;17.286;2022-12-29T11:00:21;23.70;32.60
38020;DHT22;23829;51.350;17.286;2022-12-29T11:05:56;23.90;32.20
38020;DHT22;23829;51.350;17.286;2022-12-29T11:08:33;24.10;32.20
38020;DHT22;23829;51.350;17.286;2022-12-29T11:11:03;24.10;32.10
38020;DHT22;23829;51.350;17.286;2022-12-29T11:13:33;24.00;32.30
38020;DHT22;23829;51.350;17.286;2022-12-29T11:15:59;24.10;32.40
38020;DHT22;23829;51.350;17.286;2022-12-29T11:18:38;23.90;32.30
38020;DHT22;23829;51.350;17.286;2022-12-29T11:21:23;24.10;32.20
38020;DHT22;23829;51.350;17.286;2022-12-29T11:24:02;24.00;32.20
38020;DHT22;23829;51.350;17.286;2022-12-29T11:26:31;24.10;32.20
38020;DHT22;23829;51.350;17.286;2022-12-29T11:31:56;24.50;31.70
38020;DHT22;23829;51.350;17.286;2022-12-29T11:34:32;24.30;31.80
38020;DHT22;23829;51.350;17.286;2022-12-29T11:37:19;24.20;32.00
38020;DHT22;23829;51.350;17.286;2022-12-29T11:40:15;24.10;32.00
38020;DHT22;23829;51.350;17.286;2022-12-29T11:42:48;24.10;32.10
38020;DHT22;23829;51.350;17.286;2022-12-29T11:47:47;24.20;31.90
38020;DHT22;23829;51.350;17.286;2022-12-29T11:50:35;24.20;32.00
38020;DHT22;23829;51.350;17.286;2022-12-29T11:53:07;24.10;32.20
38020;DHT22;23829;51.350;17.286;2022-12-29T11:55:37;24.10;32.20
38020;DHT22;23829;51.350;17.286;2022-12-29T11:58:04;24.20;32.10
38020;DHT22;23829;51.350;17.286;2022-12-29T12:00:34;24.50;31.90
38020;DHT22;23829;51.350;17.286;2022-12-29T12:03:22;24.40;32.00
38020;DHT22;23829;51.350;17.286;2022-12-29T12:05:54;24.50;31.90
38020;DHT22;23829;51.350;17.286;2022-12-29T12:08:48;24.30;32.10
38020;DHT22;23829;51.350;17.286;2022-12-29T12:11:20;24.20;32.30
38020;DHT22;23829;51.350;17.286;2022-12-29T12:16:34;24.30;32.20
38020;DHT22;23829;51.350;17.286;2022-12-29T12:19:18;24.50;32.30
38020;DHT22;23829;51.350;17.286;2022-12-29T12:21:54;24.50;32.10
38020;DHT22;23829;51.350;17.286;2022-12-29T12:27:01;24.50;32.00
38020;DHT22;23829;51.350;17.286;2022-12-29T12:32:20;24.60;31.90
38020;DHT22;23829;51.350;17.286;2022-12-29T12:34:49;24.50;31.90
38020;DHT22;23829;51.350;17.286;2022-12-29T12:40:29;24.50;31.60
38020;DHT22;23829;51.350;17.286;2022-12-29T12:46:06;24.60;31.60
38020;DHT22;23829;51.350;17.286;2022-12-29T12:48:55;24.50;31.70
38020;DHT22;23829;51.350;17.286;2022-12-29T12:51:43;24.40;32.00
38020;DHT22;23829;51.350;17.286;2022-12-29T12:57:40;24.30;32.20
38020;DHT22;23829;51.350;17.286;2022-12-29T13:00:18;24.50;32.10
38020;DHT22;23829;51.350;17.286;2022-12-29T13:17:28;24.70;31.60
38020;DHT22;23829;51.350;17.286;2022-12-29T13:23:15;24.70;31.60
38020;DHT22;23829;51.350;17.286;2022-12-29T13:26:39;24.60;31.90
38020;DHT22;23829;51.350;17.286;2022-12-29T13:34:54;24.40;32.10
38020;DHT22;23829;51.350;17.286;2022-12-29T13:37:25;24.40;32.10
38020;DHT22;23829;51.350;17.286;2022-12-29T13:40:01;24.50;32.10
38020;DHT22;23829;51.350;17.286;2022-12-29T13:42:29;24.60;32.00
38020;DHT22;23829;51.350;17.286;2022-12-29T13:45:05;24.50;32.10
38020;DHT22;23829;51.350;17.286;2022-12-29T13:47:37;24.40;32.10
38020;DHT22;23829;51.350;17.286;2022-12-29T13:50:21;24.30;32.50
38020;DHT22;23829;51.350;17.286;2022-12-29T13:55:51;24.30;32.60
38020;DHT22;23829;51.350;17.286;2022-12-29T13:58:32;24.20;32.80
38020;DHT22;23829;51.350;17.286;2022-12-29T14:01:22;23.90;33.10
38020;DHT22;23829;51.350;17.286;2022-12-29T14:03:55;24.00;33.20
38020;DHT22;23829;51.350;17.286;2022-12-29T14:06:27;24.00;33.00
38020;DHT22;23829;51.350;17.286;2022-12-29T14:09:34;24.00;33.20
38020;DHT22;23829;51.350;17.286;2022-12-29T14:12:01;23.70;33.70
38020;DHT22;23829;51.350;17.286;2022-12-29T14:14:30;23.80;33.60
38020;DHT22;23829;51.350;17.286;2022-12-29T14:17:11;23.90;33.60
38020;DHT22;23829;51.350;17.286;2022-12-29T14:19:39;23.80;33.70
38020;DHT22;23829;51.350;17.286;2022-12-29T14:22:09;23.80;33.90
38020;DHT22;23829;51.350;17.286;2022-12-29T14:40:24;24.00;33.60
38020;DHT22;23829;51.350;17.286;2022-12-29T14:42:55;24.00;33.60
38020;DHT22;23829;51.350;17.286;2022-12-29T14:45:29;23.90;33.70
38020;DHT22;23829;51.350;17.286;2022-12-29T14:47:56;24.00;33.70
38020;DHT22;23829;51.350;17.286;2022-12-29T14:55:41;23.70;34.40
38020;DHT22;23829;51.350;17.286;2022-12-29T14:58:26;23.60;34.70
38020;DHT22;23829;51.350;17.286;2022-12-29T15:00:53;23.40;35.00
38020;DHT22;23829;51.350;17.286;2022-12-29T15:03:29;23.40;35.10
38020;DHT22;23829;51.350;17.286;2022-12-29T15:06:06;23.50;34.90
38020;DHT22;23829;51.350;17.286;2022-12-29T15:09:00;23.50;34.90
38020;DHT22;23829;51.350;17.286;2022-12-29T15:14:38;23.60;34.70
38020;DHT22;23829;51.350;17.286;2022-12-29T15:19:50;23.40;34.70
38020;DHT22;23829;51.350;17.286;2022-12-29T15:22:16;23.70;34.30
38020;DHT22;23829;51.350;17.286;2022-12-29T15:24:44;23.60;34.20
38020;DHT22;23829;51.350;17.286;2022-12-29T15:27:14;23.70;33.90
38020;DHT22;23829;51.350;17.286;2022-12-29T15:29:44;23.70;33.80
38020;DHT22;23829;51.350;17.286;2022-12-29T15:32:20;23.70;34.20
38020;DHT22;23829;51.350;17.286;2022-12-29T15:34:50;23.70;33.70
38020;DHT22;23829;51.350;17.286;2022-12-29T15:37:36;23.60;33.80
38020;DHT22;23829;51.350;17.286;2022-12-29T15:40:03;23.70;33.60
38020;DHT22;23829;51.350;17.286;2022-12-29T15:45:33;23.50;33.60
38020;DHT22;23829;51.350;17.286;2022-12-29T15:48:00;23.50;33.60
38020;DHT22;23829;51.350;17.286;2022-12-29T15:50:46;23.20;33.90
38020;DHT22;23829;51.350;17.286;2022-12-29T15:53:19;23.20;34.00
38020;DHT22;23829;51.350;17.286;2022-12-29T15:55:51;23.20;34.00
38020;DHT22;23829;51.350;17.286;2022-12-29T15:58:23;23.10;34.00
38020;DHT22;23829;51.350;17.286;2022-12-29T16:00:53;23.00;33.90
38020;DHT22;23829;51.350;17.286;2022-12-29T16:03:21;23.00;34.50
38020;DHT22;23829;51.350;17.286;2022-12-29T16:08:42;22.80;34.10
38020;DHT22;23829;51.350;17.286;2022-12-29T16:11:22;22.60;34.30
38020;DHT22;23829;51.350;17.286;2022-12-29T16:13:50;22.60;34.30
38020;DHT22;23829;51.350;17.286;2022-12-29T16:16:35;22.60;34.50
38020;DHT22;23829;51.350;17.286;2022-12-29T16:19:22;22.50;34.40
38020;DHT22;23829;51.350;17.286;2022-12-29T16:21:51;22.50;34.30
38020;DHT22;23829;51.350;17.286;2022-12-29T16:24:19;22.60;34.20
38020;DHT22;23829;51.350;17.286;2022-12-29T16:26:49;22.80;34.00
38020;DHT22;23829;51.350;17.286;2022-12-29T16:29:16;22.70;33.90
38020;DHT22;23829;51.350;17.286;2022-12-29T16:31:52;22.50;34.00
38020;DHT22;23829;51.350;17.286;2022-12-29T16:34:42;22.50;34.30
38020;DHT22;23829;51.350;17.286;2022-12-29T16:37:30;22.50;34.30
38020;DHT22;23829;51.350;17.286;2022-12-29T16:40:27;22.60;34.00
38020;DHT22;23829;51.350;17.286;2022-12-29T16:42:59;22.60;33.90
38020;DHT22;23829;51.350;17.286;2022-12-29T16:48:21;22.60;33.90
38020;DHT22;23829;51.350;17.286;2022-12-29T16:50:49;22.40;34.00
38020;DHT22;23829;51.350;17.286;2022-12-29T16:53:25;22.50;34.00
38020;DHT22;23829;51.350;17.286;2022-12-29T16:55:53;22.20;34.20
38020;DHT22;23829;51.350;17.286;2022-12-29T16:58:24;22.30;34.40
38020;DHT22;23829;51.350;17.286;2022-12-29T17:00:57;22.20;34.30
38020;DHT22;23829;51.350;17.286;2022-12-29T17:03:37;22.10;34.50
38020;DHT22;23829;51.350;17.286;2022-12-29T17:06:04;22.30;34.20
38020;DHT22;23829;51.350;17.286;2022-12-29T17:08:41;22.30;34.20
38020;DHT22;23829;51.350;17.286;2022-12-29T17:11:29;22.30;34.30
38020;DHT22;23829;51.350;17.286;2022-12-29T17:14:23;22.30;34.20
38020;DHT22;23829;51.350;17.286;2022-12-29T17:16:52;22.10;34.30
38020;DHT22;23829;51.350;17.286;2022-12-29T17:19:22;22.10;34.40
38020;DHT22;23829;51.350;17.286;2022-12-29T17:21:51;22.00;34.70
38020;DHT22;23829;51.350;17.286;2022-12-29T17:24:19;21.80;35.10
38020;DHT22;23829;51.350;17.286;2022-12-29T17:26:49;21.70;35.30
38020;DHT22;23829;51.350;17.286;2022-12-29T17:29:29;21.80;35.10
38020;DHT22;23829;51.350;17.286;2022-12-29T17:31:57;21.80;35.20
38020;DHT22;23829;51.350;17.286;2022-12-29T17:34:24;22.00;34.80
38020;DHT22;23829;51.350;17.286;2022-12-29T17:36:51;22.00;34.50
38020;DHT22;23829;51.350;17.286;2022-12-29T17:39:17;22.00;34.60
38020;DHT22;23829;51.350;17.286;2022-12-29T17:41:44;22.10;34.50
38020;DHT22;23829;51.350;17.286;2022-12-29T17:44:15;22.10;34.50
38020;DHT22;23829;51.350;17.286;2022-12-29T17:46:43;22.00;34.70
38020;DHT22;23829;51.350;17.286;2022-12-29T17:49:12;21.90;34.80
38020;DHT22;23829;51.350;17.286;2022-12-29T17:51:41;22.00;34.70
38020;DHT22;23829;51.350;17.286;2022-12-29T17:56:43;22.00;34.60
38020;DHT22;23829;51.350;17.286;2022-12-29T17:59:13;22.20;34.30
38020;DHT22;23829;51.350;17.286;2022-12-29T18:01:42;22.50;33.90
38020;DHT22;23829;51.350;17.286;2022-12-29T18:04:14;22.60;33.60
38020;DHT22;23829;51.350;17.286;2022-12-29T18:06:41;22.30;34.00